Etusivu
METAR-TAF:

METAR-TAF

Lentoasemat :

Gao, Mali

Leveyspiiri: 16-16N, Pituuspiiri: 000-03W, korkeus merenpinnasta: 265 m

METAR: puuttuu

Aika: 12:07 (12:07 UTC)

Sääennuste

Tämä raportti tehtiin 1 tunti ja 7 minuuttia sitten, kello 11.00 UTC
Ennuste voimassa 17. päivästä klo 12 UTC - 18. päivään klo 12 UTC
Tuuli 10 kn idästä puuskistuen 20 kn:hen
Näkyvyys: 8000 m
Ajoittain
17. päivästä klo 12 UTC - 17. päivään klo 18 UTC
Näkyvyys: 4000 m
pölymyrsky

TAF: GAGO 171100Z 1712/1812 08010G20KT 8000 NSC TEMPO 1712/1718 4000 BLDU

Säähavainnot ja -ennusteet yli 4000 lentoasemalta (METAR- ja TAF-raportit).

Käytössä olevat sääasemat on merkitty karttaan keltaisilla ja punaisilla pisteillä.

Aseta hiiri pisteen päälle nähdäksesi sääaseman nimen.

Klikkaa sitten nähdäksesi säähavainnot ja -ennusteet.

Kartan vaihtaminen: klikkaa mustalla rastilla varustettuja vihreitä pisteitä, niin voit zoomata sisään; viivalla varustettua vihreää pistettä, niin voit zoomata ulos tai vihreitä nuolia, niin pääset viereisille kartoille.


METAR-TAF: